createdAt,value
2022-08-30T00:03:36.138Z,101682.66
2022-08-30T00:08:38.803Z,101692.50
2022-08-30T00:13:43.819Z,101691.66
2022-08-30T00:18:48.033Z,101689.94
2022-08-30T00:23:50.463Z,101687.50
2022-08-30T00:28:52.549Z,101700.09
2022-08-30T00:33:55.969Z,101691.28
2022-08-30T00:38:57.911Z,101691.28
2022-08-30T00:44:00.934Z,101684.91
2022-08-30T00:49:07.911Z,101696.72
2022-08-30T00:54:10.934Z,101695.84
2022-08-30T00:59:13.655Z,101703.84
2022-08-30T01:04:17.594Z,101690.69
2022-08-30T01:09:20.279Z,101697.75
2022-08-30T01:14:25.307Z,101710.22
2022-08-30T01:19:35.885Z,101703.16
2022-08-30T01:24:39.458Z,101705.78
2022-08-30T01:29:41.908Z,101714.81
2022-08-30T01:34:44.015Z,101711.28
2022-08-30T01:39:47.560Z,101713.13
2022-08-30T01:44:49.539Z,101714.94
2022-08-30T01:49:51.879Z,101699.88
2022-08-30T01:54:55.232Z,101706.97
2022-08-30T01:59:56.926Z,101699.00
2022-08-30T02:04:59.166Z,101711.44
2022-08-30T02:10:02.895Z,101703.47
2022-08-30T02:15:06.015Z,101699.97
2022-08-30T02:20:09.955Z,101695.50
2022-08-30T02:25:18.705Z,101692.97
2022-08-30T02:30:23.451Z,101699.25
2022-08-30T02:35:26.044Z,101690.44
2022-08-30T02:40:29.592Z,101697.56
2022-08-30T02:45:32.201Z,101692.22
2022-08-30T02:50:34.362Z,101691.38
2022-08-30T02:55:37.799Z,101690.50
2022-08-30T03:00:40.780Z,101693.25
2022-08-30T03:05:42.799Z,101687.91
2022-08-30T03:10:45.847Z,101687.97
2022-08-30T03:15:48.021Z,101692.41
2022-08-30T03:20:54.010Z,101693.34
2022-08-30T03:25:58.160Z,101692.47
2022-08-30T03:31:00.794Z,101695.16
2022-08-30T03:36:02.869Z,101696.06
2022-08-30T03:41:07.994Z,101701.41
2022-08-30T03:46:12.163Z,101710.22
2022-08-30T03:51:13.901Z,101706.59
2022-08-30T03:56:17.622Z,101713.50
2022-08-30T04:01:19.487Z,101717.84
2022-08-30T04:06:21.271Z,101729.19
2022-08-30T04:11:24.358Z,101722.03
2022-08-30T04:16:26.428Z,101729.00
2022-08-30T04:21:28.538Z,101721.72
2022-08-30T04:26:31.601Z,101726.09
2022-08-30T04:31:33.486Z,101728.72
2022-08-30T04:36:35.659Z,101733.06
2022-08-30T04:41:39.191Z,101728.38
2022-08-30T04:46:44.614Z,101722.84
2022-08-30T04:51:46.766Z,101732.44
2022-08-30T04:56:49.843Z,101734.97
2022-08-30T05:01:51.731Z,101743.59
2022-08-30T05:06:53.605Z,101735.28
2022-08-30T05:11:56.654Z,101751.22
2022-08-30T05:16:58.357Z,101749.00
2022-08-30T05:22:00.285Z,101752.94
2022-08-30T05:27:03.718Z,101762.47
2022-08-30T05:32:05.852Z,101762.22
2022-08-30T05:37:07.535Z,101762.75
2022-08-30T05:42:11.144Z,101776.75
2022-08-30T05:47:19.362Z,101771.91
2022-08-30T05:52:22.022Z,101767.91
2022-08-30T05:57:25.881Z,101773.78
2022-08-30T06:02:28.182Z,101780.88
2022-08-30T06:07:29.817Z,101777.03
2022-08-30T06:12:33.230Z,101781.84
2022-08-30T06:17:34.941Z,101777.34
2022-08-30T06:22:37.155Z,101777.88
2022-08-30T06:27:40.209Z,101777.81
2022-08-30T06:32:41.848Z,101787.56
2022-08-30T06:37:43.573Z,101785.94
2022-08-30T06:42:46.939Z,101789.28
2022-08-30T06:47:48.873Z,101788.59
2022-08-30T06:52:50.619Z,101802.63
2022-08-30T06:57:53.688Z,101797.69
2022-08-30T07:02:55.632Z,101796.28
2022-08-30T07:07:57.406Z,101794.72
2022-08-30T07:13:00.457Z,101800.06
2022-08-30T07:18:02.670Z,101793.84
2022-08-30T07:23:04.642Z,101797.22
2022-08-30T07:28:09.092Z,101805.34
2022-08-30T07:33:10.838Z,101798.41
2022-08-30T07:38:13.139Z,101815.91
2022-08-30T07:43:16.360Z,101826.06
2022-08-30T07:48:18.174Z,101824.84
2022-08-30T07:53:20.011Z,101821.00
2022-08-30T07:58:24.419Z,101811.56
2022-08-30T08:03:26.542Z,101804.78
2022-08-30T08:08:28.762Z,101809.47
2022-08-30T08:13:32.786Z,101805.06
2022-08-30T08:18:38.328Z,101812.50
2022-08-30T08:23:40.271Z,101814.91
2022-08-30T08:28:44.102Z,101827.38
2022-08-30T08:33:45.824Z,101827.47
2022-08-30T08:38:47.631Z,101824.66
2022-08-30T08:43:50.903Z,101828.91
2022-08-30T08:49:00.891Z,101828.94
2022-08-30T08:54:08.103Z,101828.47
2022-08-30T08:59:13.370Z,101827.50
2022-08-30T09:04:20.675Z,101823.50
2022-08-30T09:09:27.360Z,101820.19
2022-08-30T09:14:34.779Z,101827.88
2022-08-30T09:19:40.028Z,101828.75
2022-08-30T09:24:45.209Z,101832.88
2022-08-30T09:29:58.026Z,101835.75
2022-08-30T09:35:00.022Z,101837.53
2022-08-30T09:40:07.820Z,101833.47
2022-08-30T09:45:20.051Z,101832.25
2022-08-30T09:50:21.899Z,101833.16
2022-08-30T09:55:54.699Z,101843.50
2022-08-30T10:01:06.044Z,101837.44
2022-08-30T10:06:18.252Z,101835.34
2022-08-30T10:11:28.031Z,101842.69
2022-08-30T10:16:41.399Z,101825.94
2022-08-30T10:21:49.246Z,101836.88
2022-08-30T10:26:56.279Z,101828.47
2022-08-30T10:32:04.402Z,101829.06
2022-08-30T10:37:09.895Z,101837.50
2022-08-30T10:42:18.563Z,101826.84
2022-08-30T10:47:29.495Z,101839.78
2022-08-30T10:52:39.069Z,101823.31
2022-08-30T10:57:43.710Z,101816.06
2022-08-30T11:03:05.871Z,101811.53
2022-08-30T11:08:26.032Z,101810.03
2022-08-30T11:13:30.965Z,101808.31
2022-08-30T11:18:43.401Z,101810.00
2022-08-30T11:24:02.402Z,101810.97
2022-08-30T11:29:09.350Z,101808.63
2022-08-30T11:34:12.602Z,101806.66
2022-08-30T11:39:42.987Z,101791.13
2022-08-30T11:44:45.357Z,101781.56
2022-08-30T11:49:59.003Z,101778.78
2022-08-30T11:55:21.428Z,101778.41
2022-08-30T12:00:34.272Z,101773.28
2022-08-30T12:05:59.990Z,101787.53
2022-08-30T12:11:04.224Z,101775.38
2022-08-30T12:16:07.329Z,101773.28
2022-08-30T12:21:28.652Z,101772.38
2022-08-30T12:26:35.808Z,101758.78
2022-08-30T12:31:44.679Z,101759.06
2022-08-30T12:36:54.027Z,101759.63
2022-08-30T12:41:56.535Z,101745.19
2022-08-30T12:47:03.304Z,101751.47
2022-08-30T12:52:21.767Z,101737.50
2022-08-30T12:57:38.522Z,101738.88
2022-08-30T13:02:52.683Z,101735.22
2022-08-30T13:08:10.709Z,101729.88
2022-08-30T13:13:27.791Z,101721.44
2022-08-30T13:28:59.112Z,101708.44
2022-08-30T13:34:01.510Z,101709.31
2022-08-30T13:39:04.760Z,101711.25
2022-08-30T13:44:11.881Z,101700.34
2022-08-30T13:54:40.577Z,101706.09
2022-08-30T13:59:43.698Z,101702.03
2022-08-30T14:04:52.950Z,101691.94
2022-08-30T14:10:30.225Z,101701.72
2022-08-30T14:15:18.571Z,101696.25
2022-08-30T14:20:20.823Z,101693.94
2022-08-30T14:25:22.770Z,101695.25
2022-08-30T14:30:27.029Z,101697.44
2022-08-30T14:35:29.631Z,101691.84
2022-08-30T14:40:31.674Z,101699.78
2022-08-30T14:45:37.033Z,101693.72
2022-08-30T14:50:39.267Z,101695.31
2022-08-30T14:55:41.299Z,101695.00
2022-08-30T15:00:50.802Z,101696.03
2022-08-30T15:05:53.560Z,101691.44
2022-08-30T15:10:55.858Z,101688.59
2022-08-30T15:15:59.369Z,101684.69
2022-08-30T15:21:01.502Z,101692.47
2022-08-30T15:26:04.882Z,101700.53
2022-08-30T15:31:10.274Z,101695.94
2022-08-30T15:36:13.083Z,101701.81
2022-08-30T15:41:15.529Z,101702.78
2022-08-30T15:46:21.962Z,101697.84
2022-08-30T15:51:25.985Z,101690.53
2022-08-30T15:56:28.176Z,101688.31
2022-08-30T16:01:32.386Z,101695.75
2022-08-30T16:06:36.312Z,101690.03
2022-08-30T16:11:38.923Z,101683.56
2022-08-30T16:16:42.403Z,101686.53
2022-08-30T16:21:44.770Z,101690.78
2022-08-30T16:26:47.667Z,101697.09
2022-08-30T16:31:51.250Z,101695.53
2022-08-30T16:36:53.985Z,101696.50
2022-08-30T16:41:56.062Z,101689.81
2022-08-30T16:46:59.836Z,101687.25
2022-08-30T16:52:01.915Z,101689.47
2022-08-30T16:57:06.472Z,101694.75
2022-08-30T17:02:10.197Z,101687.44
2022-08-30T17:07:13.734Z,101693.22
2022-08-30T17:12:16.654Z,101687.19
2022-08-30T17:17:22.225Z,101693.81
2022-08-30T17:22:24.886Z,101690.63
2022-08-30T17:27:28.819Z,101694.50
2022-08-30T17:32:32.296Z,101703.47
2022-08-30T17:37:34.334Z,101710.88
2022-08-30T17:42:36.578Z,101715.91
2022-08-30T17:47:40.585Z,101717.19
2022-08-30T17:52:43.272Z,101724.13
2022-08-30T17:57:46.362Z,101721.63
2022-08-30T18:02:54.350Z,101726.91
2022-08-30T18:07:56.399Z,101727.44
2022-08-30T18:12:58.304Z,101735.06
2022-08-30T18:18:01.672Z,101752.03
2022-08-30T18:23:06.428Z,101755.16
2022-08-30T18:28:10.243Z,101764.53
2022-08-30T18:33:16.087Z,101760.53
2022-08-30T18:38:23.722Z,101757.34
2022-08-30T18:43:31.160Z,101769.19
2022-08-30T18:48:35.334Z,101770.44
2022-08-30T18:53:37.864Z,101768.97
2022-08-30T18:58:39.862Z,101768.38
2022-08-30T19:03:47.751Z,101764.41
2022-08-30T19:08:51.021Z,101774.38
2022-08-30T19:13:53.191Z,101776.38
2022-08-30T19:18:56.863Z,101776.31
2022-08-30T19:23:59.430Z,101773.19
2022-08-30T19:29:01.846Z,101772.72
2022-08-30T19:34:05.910Z,101777.31
2022-08-30T19:39:08.274Z,101781.13
2022-08-30T19:44:10.159Z,101774.56
2022-08-30T19:49:13.743Z,101782.69
2022-08-30T19:54:15.584Z,101786.41
2022-08-30T19:59:19.381Z,101792.00
2022-08-30T20:04:23.266Z,101788.63
2022-08-30T20:09:27.408Z,101785.38
2022-08-30T20:14:29.472Z,101790.03
2022-08-30T20:19:32.792Z,101789.44
2022-08-30T20:29:37.318Z,101799.69
2022-08-30T20:34:40.363Z,101794.56
2022-08-30T20:39:42.350Z,101797.44
2022-08-30T20:44:44.231Z,101800.38
2022-08-30T20:49:47.920Z,101803.13
2022-08-30T20:54:49.621Z,101803.25
2022-08-30T20:59:58.398Z,101807.06
2022-08-30T21:05:04.205Z,101812.63
2022-08-30T21:10:07.210Z,101812.69
2022-08-30T21:15:33.904Z,101803.91
2022-08-30T21:20:34.628Z,101801.06
2022-08-30T21:25:38.181Z,101811.63
2022-08-30T21:30:40.320Z,101823.22
2022-08-30T21:35:43.766Z,101832.31
2022-08-30T21:40:46.397Z,101826.22
2022-08-30T21:45:48.756Z,101821.09
2022-08-30T21:50:52.641Z,101827.34
2022-08-30T21:55:54.606Z,101829.31
2022-08-30T22:00:57.641Z,101833.00
2022-08-30T22:06:00.881Z,101832.13
2022-08-30T22:11:06.112Z,101828.56
2022-08-30T22:16:08.703Z,101830.44
2022-08-30T22:21:14.495Z,101839.44
2022-08-30T22:26:17.904Z,101836.66
2022-08-30T22:31:21.753Z,101832.81
2022-08-30T22:36:32.762Z,101825.69
2022-08-30T22:41:35.750Z,101834.38
2022-08-30T22:46:38.121Z,101825.34
2022-08-30T22:51:41.980Z,101840.59
2022-08-30T22:56:44.189Z,101846.72
2022-08-30T23:01:46.275Z,101855.50
2022-08-30T23:06:50.375Z,101848.47
2022-08-30T23:11:52.117Z,101851.19
2022-08-30T23:16:54.181Z,101853.81
2022-08-30T23:21:57.698Z,101855.69
2022-08-30T23:26:59.748Z,101850.47
2022-08-30T23:32:03.127Z,101843.28
2022-08-30T23:37:06.575Z,101853.13
2022-08-30T23:42:08.867Z,101846.34
2022-08-30T23:47:10.683Z,101855.66
2022-08-30T23:52:14.116Z,101855.91
2022-08-30T23:57:16.089Z,101857.91
